createdAt,value
2023-05-10T00:00:43.626Z,45.62
2023-05-10T00:01:39.191Z,45.92
2023-05-10T00:02:34.810Z,45.72
2023-05-10T00:03:30.328Z,44.81
2023-05-10T00:04:25.783Z,45.42
2023-05-10T00:05:21.311Z,46.02
2023-05-10T00:06:16.856Z,45.54
2023-05-10T00:07:12.390Z,45.62
2023-05-10T00:08:07.931Z,45.62
2023-05-10T00:09:03.467Z,45.82
2023-05-10T00:09:58.986Z,45.82
2023-05-10T00:10:54.565Z,46.22
2023-05-10T00:11:50.092Z,46.75
2023-05-10T00:12:45.666Z,45.84
2023-05-10T00:13:41.161Z,45.54
2023-05-10T00:14:36.691Z,45.54
2023-05-10T00:15:32.240Z,45.54
2023-05-10T00:16:27.832Z,45.82
2023-05-10T00:17:23.344Z,46.35
2023-05-10T00:18:18.893Z,46.55
2023-05-10T00:19:14.406Z,46.25
2023-05-10T00:20:09.919Z,46.75
2023-05-10T00:21:05.459Z,46.65
2023-05-10T00:22:00.997Z,46.45
2023-05-10T00:22:56.529Z,46.14
2023-05-10T00:23:52.078Z,46.04
2023-05-10T00:24:47.603Z,46.35
2023-05-10T00:25:43.136Z,45.43
2023-05-10T00:26:38.694Z,46.75
2023-05-10T00:27:34.207Z,46.75
2023-05-10T00:28:29.734Z,46.45
2023-05-10T00:29:25.269Z,46.14
2023-05-10T00:30:20.821Z,46.55
2023-05-10T00:31:16.357Z,46.65
2023-05-10T00:32:12.031Z,46.45
2023-05-10T00:33:07.514Z,47.16
2023-05-10T00:34:02.999Z,47.08
2023-05-10T00:34:58.998Z,47.08
2023-05-10T00:35:54.541Z,46.78
2023-05-10T00:36:50.061Z,47.08
2023-05-10T00:37:45.599Z,47.16
2023-05-10T00:38:41.133Z,46.78
2023-05-10T00:39:36.678Z,46.78
2023-05-10T00:40:32.218Z,46.86
2023-05-10T00:41:27.748Z,46.98
2023-05-10T00:42:23.291Z,46.88
2023-05-10T00:43:18.836Z,46.95
2023-05-10T00:44:14.368Z,47.28
2023-05-10T00:45:09.903Z,47.08
2023-05-10T00:46:05.509Z,46.78
2023-05-10T00:47:00.971Z,47.18
2023-05-10T00:47:56.552Z,47.08
2023-05-10T00:48:52.052Z,46.88
2023-05-10T00:49:47.608Z,47.08
2023-05-10T00:50:43.114Z,46.88
2023-05-10T00:51:38.650Z,46.78
2023-05-10T00:52:34.212Z,46.88
2023-05-10T00:53:29.746Z,47.08
2023-05-10T00:54:25.303Z,47.08
2023-05-10T00:55:20.832Z,47.18
2023-05-10T00:56:16.371Z,46.78
2023-05-10T00:57:11.905Z,47.18
2023-05-10T00:58:07.454Z,46.98
2023-05-10T00:59:03.001Z,47.08
2023-05-10T00:59:58.535Z,47.28
2023-05-10T01:00:54.067Z,46.57
2023-05-10T01:01:49.614Z,47.08
2023-05-10T01:02:45.219Z,46.37
2023-05-10T01:03:40.736Z,46.98
2023-05-10T01:04:36.288Z,46.37
2023-05-10T01:05:31.787Z,46.88
2023-05-10T01:06:27.304Z,46.59
2023-05-10T01:07:22.825Z,46.88
2023-05-10T01:08:18.365Z,46.90
2023-05-10T01:09:13.896Z,47.41
2023-05-10T01:10:09.433Z,47.00
2023-05-10T01:11:04.975Z,46.59
2023-05-10T01:12:00.549Z,47.20
2023-05-10T01:12:56.063Z,46.37
2023-05-10T01:13:51.572Z,47.08
2023-05-10T01:14:47.103Z,46.98
2023-05-10T01:15:42.662Z,46.67
2023-05-10T01:16:38.191Z,46.70
2023-05-10T01:17:33.759Z,46.98
2023-05-10T01:18:29.252Z,47.10
2023-05-10T01:19:24.797Z,46.49
2023-05-10T01:20:20.356Z,46.59
2023-05-10T01:21:15.993Z,47.00
2023-05-10T01:22:11.431Z,46.70
2023-05-10T01:23:06.966Z,47.00
2023-05-10T01:24:02.500Z,47.10
2023-05-10T01:24:58.044Z,46.80
2023-05-10T01:25:53.583Z,46.80
2023-05-10T01:26:49.121Z,47.10
2023-05-10T01:27:44.655Z,47.00
2023-05-10T01:28:40.182Z,47.30
2023-05-10T01:29:35.710Z,46.90
2023-05-10T01:30:31.252Z,47.20
2023-05-10T01:31:26.827Z,47.00
2023-05-10T01:32:22.344Z,46.19
2023-05-10T01:33:17.879Z,46.80
2023-05-10T01:34:14.420Z,46.70
2023-05-10T01:35:09.961Z,46.90
2023-05-10T01:36:05.487Z,47.00
2023-05-10T01:37:01.063Z,46.59
2023-05-10T01:37:56.564Z,46.80
2023-05-10T01:38:52.090Z,46.39
2023-05-10T01:39:47.628Z,46.70
2023-05-10T01:40:43.165Z,47.20
2023-05-10T01:41:38.692Z,46.90
2023-05-10T01:42:34.220Z,46.72
2023-05-10T01:43:29.774Z,47.10
2023-05-10T01:44:25.300Z,47.20
2023-05-10T01:45:20.834Z,47.43
2023-05-10T01:46:16.419Z,46.62
2023-05-10T01:47:11.921Z,46.80
2023-05-10T01:48:07.492Z,47.13
2023-05-10T01:49:02.991Z,46.92
2023-05-10T01:49:58.547Z,47.74
2023-05-10T01:50:54.087Z,46.70
2023-05-10T01:51:49.613Z,46.72
2023-05-10T01:52:45.174Z,47.43
2023-05-10T01:53:40.724Z,47.83
2023-05-10T01:54:36.250Z,47.43
2023-05-10T01:55:31.787Z,47.63
2023-05-10T01:56:27.328Z,46.92
2023-05-10T01:57:22.856Z,47.83
2023-05-10T01:58:18.390Z,47.53
2023-05-10T01:59:13.940Z,46.82
2023-05-10T02:00:09.481Z,47.94
2023-05-10T02:01:05.037Z,47.43
2023-05-10T02:02:01.144Z,47.25
2023-05-10T02:02:56.727Z,47.63
2023-05-10T02:03:52.262Z,47.13
2023-05-10T02:04:47.749Z,47.74
2023-05-10T02:05:43.281Z,47.53
2023-05-10T02:06:38.831Z,47.74
2023-05-10T02:07:34.353Z,47.35
2023-05-10T02:08:29.920Z,47.74
2023-05-10T02:09:25.440Z,47.45
2023-05-10T02:10:20.981Z,48.47
2023-05-10T02:11:16.508Z,48.16
2023-05-10T02:12:12.058Z,48.27
2023-05-10T02:13:07.659Z,48.47
2023-05-10T02:14:03.135Z,48.57
2023-05-10T02:14:58.668Z,47.75
2023-05-10T02:15:54.190Z,48.47
2023-05-10T02:16:49.808Z,48.06
2023-05-10T02:17:45.284Z,48.06
2023-05-10T02:18:40.822Z,48.55
2023-05-10T02:19:36.373Z,48.57
2023-05-10T02:20:31.893Z,47.86
2023-05-10T02:21:27.441Z,48.36
2023-05-10T02:22:22.980Z,48.57
2023-05-10T02:23:18.521Z,48.36
2023-05-10T02:24:14.065Z,48.77
2023-05-10T02:25:09.583Z,48.16
2023-05-10T02:26:05.117Z,48.67
2023-05-10T02:27:00.655Z,48.06
2023-05-10T02:27:56.208Z,47.96
2023-05-10T02:28:51.751Z,48.57
2023-05-10T02:29:47.274Z,48.16
2023-05-10T02:30:42.816Z,48.57
2023-05-10T02:31:38.358Z,48.36
2023-05-10T02:32:33.888Z,48.16
2023-05-10T02:33:29.421Z,48.97
2023-05-10T02:34:24.941Z,48.67
2023-05-10T02:35:20.476Z,48.36
2023-05-10T02:36:16.149Z,49.51
2023-05-10T02:37:11.559Z,49.51
2023-05-10T02:38:07.097Z,49.00
2023-05-10T02:39:02.626Z,49.10
2023-05-10T02:39:58.336Z,48.80
2023-05-10T02:40:53.716Z,48.80
2023-05-10T02:41:49.246Z,48.90
2023-05-10T02:42:44.798Z,48.59
2023-05-10T02:43:40.338Z,49.10
2023-05-10T02:44:35.867Z,49.00
2023-05-10T02:45:31.420Z,49.10
2023-05-10T02:46:26.973Z,48.90
2023-05-10T02:47:22.482Z,49.20
2023-05-10T02:48:18.001Z,48.90
2023-05-10T02:49:13.541Z,49.20
2023-05-10T02:50:09.089Z,49.40
2023-05-10T02:51:04.621Z,49.20
2023-05-10T02:52:00.177Z,49.20
2023-05-10T02:52:55.725Z,48.59
2023-05-10T02:53:51.247Z,48.67
2023-05-10T02:54:46.791Z,48.90
2023-05-10T02:55:42.961Z,48.80
2023-05-10T02:56:38.466Z,49.51
2023-05-10T02:57:34.006Z,49.02
2023-05-10T02:58:29.543Z,48.90
2023-05-10T02:59:25.094Z,49.10
2023-05-10T03:00:20.609Z,49.22
2023-05-10T03:01:16.209Z,49.12
2023-05-10T03:02:11.722Z,48.92
2023-05-10T03:03:07.321Z,48.92
2023-05-10T03:04:02.814Z,49.43
2023-05-10T03:04:58.420Z,49.43
2023-05-10T03:05:53.903Z,49.63
2023-05-10T03:06:49.451Z,49.33
2023-05-10T03:07:44.986Z,49.22
2023-05-10T03:08:40.529Z,48.92
2023-05-10T03:09:36.072Z,49.63
2023-05-10T03:10:31.594Z,49.53
2023-05-10T03:11:27.279Z,49.84
2023-05-10T03:12:22.662Z,49.43
2023-05-10T03:13:18.272Z,49.02
2023-05-10T03:14:13.738Z,49.53
2023-05-10T03:15:16.538Z,49.43
2023-05-10T03:16:12.101Z,49.53
2023-05-10T03:17:08.138Z,49.22
2023-05-10T03:18:03.725Z,49.84
2023-05-10T03:18:59.221Z,49.63
2023-05-10T03:19:54.754Z,49.22
2023-05-10T03:20:50.295Z,49.12
2023-05-10T03:21:45.839Z,49.33
2023-05-10T03:22:41.392Z,49.43
2023-05-10T03:23:36.941Z,49.35
2023-05-10T03:24:32.470Z,50.37
2023-05-10T03:25:28.004Z,50.87
2023-05-10T03:26:23.549Z,50.04
2023-05-10T03:27:19.129Z,50.26
2023-05-10T03:28:14.663Z,49.65
2023-05-10T03:29:10.198Z,49.86
2023-05-10T03:30:05.746Z,49.55
2023-05-10T03:31:01.363Z,49.73
2023-05-10T03:31:56.856Z,50.67
2023-05-10T03:32:52.474Z,50.67
2023-05-10T03:33:47.912Z,50.67
2023-05-10T03:34:43.446Z,50.57
2023-05-10T03:35:39.038Z,50.57
2023-05-10T03:36:34.535Z,50.78
2023-05-10T03:37:30.075Z,50.47
2023-05-10T03:38:25.621Z,50.26
2023-05-10T03:39:21.172Z,50.80
2023-05-10T03:40:17.026Z,50.78
2023-05-10T03:41:12.250Z,50.67
2023-05-10T03:42:07.793Z,50.57
2023-05-10T03:43:03.372Z,50.87
2023-05-10T03:43:58.869Z,50.87
2023-05-10T03:44:54.408Z,50.57
2023-05-10T03:45:49.945Z,50.98
2023-05-10T03:46:45.524Z,50.80
2023-05-10T03:47:41.070Z,50.70
2023-05-10T03:48:36.566Z,51.10
2023-05-10T03:49:32.102Z,50.78
2023-05-10T03:50:27.643Z,50.90
2023-05-10T03:51:23.180Z,50.26
2023-05-10T03:52:18.728Z,50.70
2023-05-10T03:53:14.275Z,50.80
2023-05-10T03:54:09.803Z,51.20
2023-05-10T03:55:05.355Z,51.31
2023-05-10T03:56:00.898Z,51.31
2023-05-10T03:56:56.415Z,51.20
2023-05-10T03:57:51.961Z,50.70
2023-05-10T03:58:36.667Z,51.31
2023-05-10T03:59:32.528Z,51.13
2023-05-10T04:00:28.079Z,51.31
2023-05-10T04:01:12.745Z,51.31
2023-05-10T04:02:08.328Z,50.70
2023-05-10T04:02:53.046Z,51.10
2023-05-10T04:03:48.635Z,51.61
2023-05-10T04:04:44.094Z,51.31
2023-05-10T04:05:39.653Z,50.80
2023-05-10T04:06:35.261Z,50.59
2023-05-10T04:07:30.717Z,50.59
2023-05-10T04:08:26.284Z,50.49
2023-05-10T04:09:21.835Z,51.10
2023-05-10T04:10:17.796Z,51.10
2023-05-10T04:11:12.917Z,50.90
2023-05-10T04:12:09.499Z,51.33
2023-05-10T04:13:04.060Z,51.10
2023-05-10T04:13:59.548Z,51.20
2023-05-10T04:14:44.194Z,51.20
2023-05-10T04:15:39.745Z,50.62
2023-05-10T04:16:35.307Z,50.72
2023-05-10T04:17:30.956Z,50.80
2023-05-10T04:18:26.358Z,51.31
2023-05-10T04:19:21.897Z,51.23
2023-05-10T04:20:17.702Z,51.20
2023-05-10T04:21:13.023Z,51.31
2023-05-10T04:22:08.545Z,51.23
2023-05-10T04:23:04.081Z,51.10
2023-05-10T04:23:59.616Z,50.72
2023-05-10T04:24:55.163Z,51.53
2023-05-10T04:25:50.706Z,51.74
2023-05-10T04:26:46.237Z,51.53
2023-05-10T04:27:41.770Z,51.74
2023-05-10T04:28:37.313Z,51.53
2023-05-10T04:29:32.872Z,51.13
2023-05-10T04:30:28.407Z,50.90
2023-05-10T04:31:13.305Z,51.64
2023-05-10T04:32:08.765Z,50.72
2023-05-10T04:32:53.460Z,51.13
2023-05-10T04:33:48.964Z,51.33
2023-05-10T04:34:44.514Z,51.64
2023-05-10T04:35:40.192Z,51.33
2023-05-10T04:36:35.718Z,51.53
2023-05-10T04:37:31.258Z,51.00
2023-05-10T04:38:26.795Z,50.70
2023-05-10T04:39:22.338Z,51.61
2023-05-10T04:40:18.022Z,51.74
2023-05-10T04:41:13.417Z,51.53
2023-05-10T04:42:08.972Z,51.23
2023-05-10T04:43:04.508Z,51.74
2023-05-10T04:44:00.058Z,51.94
2023-05-10T04:44:55.593Z,51.53
2023-05-10T04:45:51.143Z,51.23
2023-05-10T04:46:46.745Z,51.64
2023-05-10T04:47:42.236Z,51.64
2023-05-10T04:48:26.859Z,51.64
2023-05-10T04:49:11.526Z,51.43
2023-05-10T04:50:07.067Z,51.72
2023-05-10T04:51:02.610Z,51.81
2023-05-10T04:51:58.144Z,51.64
2023-05-10T04:52:53.684Z,51.74
2023-05-10T04:54:44.772Z,52.55
2023-05-10T04:55:40.316Z,51.53
2023-05-10T04:56:35.843Z,51.64
2023-05-10T04:57:31.400Z,51.31
2023-05-10T04:58:26.952Z,51.72
2023-05-10T04:59:22.522Z,52.25
2023-05-10T05:00:18.311Z,51.84
2023-05-10T05:01:13.625Z,51.74
2023-05-10T05:02:09.267Z,51.74
2023-05-10T05:03:04.817Z,51.61
2023-05-10T05:04:00.413Z,51.41
2023-05-10T05:04:55.848Z,51.51
2023-05-10T05:05:51.403Z,51.33
2023-05-10T05:06:46.953Z,52.35
2023-05-10T05:07:42.531Z,52.33
2023-05-10T05:08:27.200Z,52.43
2023-05-10T05:09:22.774Z,51.33
2023-05-10T05:10:18.538Z,52.15
2023-05-10T05:11:03.061Z,52.04
2023-05-10T05:11:58.531Z,52.73
2023-05-10T05:12:54.185Z,52.63
2023-05-10T05:13:50.250Z,52.12
2023-05-10T05:14:45.808Z,52.22
2023-05-10T05:15:41.356Z,51.51
2023-05-10T05:16:36.981Z,51.61
2023-05-10T05:17:32.428Z,51.81
2023-05-10T05:18:27.954Z,51.31
2023-05-10T05:19:23.535Z,51.81
2023-05-10T05:20:19.232Z,51.72
2023-05-10T05:21:14.616Z,51.72
2023-05-10T05:22:10.150Z,51.10
2023-05-10T05:23:05.695Z,51.72
2023-05-10T05:24:01.239Z,52.22
2023-05-10T05:24:56.806Z,52.43
2023-05-10T05:25:52.359Z,52.02
2023-05-10T05:26:47.895Z,52.12
2023-05-10T05:27:43.447Z,51.72
2023-05-10T05:28:38.973Z,52.12
2023-05-10T05:29:34.535Z,52.33
2023-05-10T05:30:30.108Z,52.12
2023-05-10T05:31:25.661Z,52.02
2023-05-10T05:32:21.180Z,51.92
2023-05-10T05:33:16.716Z,52.73
2023-05-10T05:34:12.266Z,52.53
2023-05-10T05:35:07.832Z,53.04
2023-05-10T05:36:03.400Z,52.83
2023-05-10T05:36:58.901Z,52.53
2023-05-10T05:37:54.448Z,52.83
2023-05-10T05:38:50.024Z,52.30
2023-05-10T05:39:45.555Z,52.53
2023-05-10T05:40:41.094Z,52.50
2023-05-10T05:41:36.635Z,52.30
2023-05-10T05:42:32.175Z,52.50
2023-05-10T05:43:16.857Z,52.40
2023-05-10T05:44:01.532Z,52.61
2023-05-10T05:44:57.089Z,52.20
2023-05-10T05:45:52.663Z,52.91
2023-05-10T05:46:48.214Z,52.71
2023-05-10T05:47:43.757Z,52.28
2023-05-10T05:48:39.282Z,52.68
2023-05-10T05:49:34.823Z,51.46
2023-05-10T05:50:30.377Z,52.40
2023-05-10T05:51:25.906Z,52.20
2023-05-10T05:52:21.455Z,52.37
2023-05-10T05:53:17.014Z,52.17
2023-05-10T05:54:12.549Z,52.37
2023-05-10T05:55:08.094Z,51.56
2023-05-10T05:56:03.627Z,51.26
2023-05-10T05:57:01.071Z,51.87
2023-05-10T05:57:54.709Z,51.77
2023-05-10T05:58:50.270Z,51.77
2023-05-10T05:59:45.822Z,51.46
2023-05-10T06:00:41.347Z,51.46
2023-05-10T06:01:36.897Z,51.87
2023-05-10T06:02:32.563Z,51.44
2023-05-10T06:03:28.056Z,51.56
2023-05-10T06:04:23.591Z,51.14
2023-05-10T06:05:19.179Z,51.54
2023-05-10T06:06:14.614Z,51.64
2023-05-10T06:07:10.165Z,51.44
2023-05-10T06:08:05.702Z,51.03
2023-05-10T06:08:50.412Z,50.83
2023-05-10T06:09:46.079Z,50.62
2023-05-10T06:10:41.594Z,51.34
2023-05-10T06:11:37.136Z,51.03
2023-05-10T06:12:32.671Z,50.60
2023-05-10T06:13:28.323Z,51.11
2023-05-10T06:14:23.757Z,50.90
2023-05-10T06:15:19.287Z,50.98
2023-05-10T06:16:14.865Z,51.18
2023-05-10T06:17:10.384Z,50.68
2023-05-10T06:18:06.024Z,51.49
2023-05-10T06:19:01.436Z,50.48
2023-05-10T06:19:56.976Z,50.58
2023-05-10T06:20:52.518Z,50.78
2023-05-10T06:21:48.083Z,50.78
2023-05-10T06:22:43.631Z,50.45
2023-05-10T06:23:28.278Z,50.25
2023-05-10T06:24:24.825Z,50.04
2023-05-10T06:25:20.376Z,50.65
2023-05-10T06:26:15.902Z,50.23
2023-05-10T06:27:11.447Z,49.49
2023-05-10T06:27:56.131Z,49.41
2023-05-10T06:28:51.663Z,49.69
2023-05-10T06:29:47.197Z,49.49
2023-05-10T06:30:42.735Z,48.76
2023-05-10T06:31:38.288Z,48.35
2023-05-10T06:32:33.874Z,48.05
2023-05-10T06:33:29.386Z,48.13
2023-05-10T06:34:24.919Z,48.13
2023-05-10T06:35:20.446Z,48.33
2023-05-10T06:36:15.986Z,48.13
2023-05-10T06:37:00.668Z,47.60
2023-05-10T06:37:56.211Z,47.80
2023-05-10T06:38:51.752Z,47.39
2023-05-10T06:39:47.289Z,47.88
2023-05-10T06:40:42.811Z,47.75
2023-05-10T06:41:38.363Z,46.95
2023-05-10T06:42:33.907Z,46.52
2023-05-10T06:43:29.491Z,46.62
2023-05-10T06:44:25.012Z,46.62
2023-05-10T06:45:20.657Z,46.80
2023-05-10T06:46:16.165Z,45.79
2023-05-10T06:47:11.634Z,46.30
2023-05-10T06:48:07.226Z,45.79
2023-05-10T06:49:02.749Z,46.60
2023-05-10T06:49:58.256Z,45.99
2023-05-10T06:50:53.803Z,45.87
2023-05-10T06:51:49.349Z,45.97
2023-05-10T06:52:44.878Z,46.37
2023-05-10T06:53:40.419Z,46.37
2023-05-10T06:54:35.980Z,46.28
2023-05-10T06:55:31.526Z,45.45
2023-05-10T06:56:27.061Z,45.85
2023-05-10T06:57:31.209Z,44.64
2023-05-10T06:58:18.168Z,44.64
2023-05-10T06:59:13.766Z,44.64
2023-05-10T07:00:09.278Z,44.71
2023-05-10T07:01:04.834Z,44.82
2023-05-10T07:02:00.388Z,44.92
2023-05-10T07:02:55.966Z,44.51
2023-05-10T07:03:51.468Z,44.62
2023-05-10T07:04:47.027Z,44.90
2023-05-10T07:05:42.597Z,44.49
2023-05-10T07:06:38.091Z,44.57
2023-05-10T07:07:33.621Z,44.27
2023-05-10T07:08:29.178Z,44.27
2023-05-10T07:09:24.752Z,44.17
2023-05-10T07:10:20.288Z,43.87
2023-05-10T07:11:15.844Z,43.16
2023-05-10T07:12:13.422Z,44.67
2023-05-10T07:13:07.010Z,43.34
2023-05-10T07:14:02.464Z,43.95
2023-05-10T07:14:58.025Z,43.14
2023-05-10T07:15:54.621Z,44.02
2023-05-10T07:16:50.112Z,43.22
2023-05-10T07:17:46.082Z,42.72
2023-05-10T07:18:41.265Z,42.61
2023-05-10T07:19:36.815Z,42.90
2023-05-10T07:20:32.341Z,42.40
2023-05-10T07:21:27.893Z,41.79
2023-05-10T07:22:23.417Z,41.79
2023-05-10T07:23:18.973Z,41.39
2023-05-10T07:24:14.537Z,41.69
2023-05-10T07:25:10.076Z,42.18
2023-05-10T07:26:05.611Z,41.99
2023-05-10T07:27:01.146Z,42.40
2023-05-10T07:27:56.693Z,42.19
2023-05-10T07:28:52.216Z,41.97
2023-05-10T07:29:36.885Z,41.67
2023-05-10T07:30:32.449Z,41.87
2023-05-10T07:31:27.994Z,41.87
2023-05-10T07:32:23.752Z,41.87
2023-05-10T07:33:19.142Z,42.30
2023-05-10T07:34:14.640Z,41.69
2023-05-10T07:35:10.170Z,42.10
2023-05-10T07:36:05.736Z,41.57
2023-05-10T07:37:01.306Z,42.19
2023-05-10T07:37:56.856Z,42.19
2023-05-10T07:38:52.435Z,42.30
2023-05-10T07:39:47.969Z,41.79
2023-05-10T07:40:43.540Z,41.89
2023-05-10T07:41:39.089Z,41.97
2023-05-10T07:42:34.658Z,41.87
2023-05-10T07:43:30.201Z,42.18
2023-05-10T07:44:25.751Z,41.47
2023-05-10T07:45:21.286Z,41.67
2023-05-10T07:46:16.862Z,41.27
2023-05-10T07:47:12.392Z,41.77
2023-05-10T07:48:07.956Z,41.06
2023-05-10T07:49:03.506Z,42.18
2023-05-10T07:49:59.060Z,41.97
2023-05-10T07:50:54.590Z,41.87
2023-05-10T07:51:50.149Z,41.57
2023-05-10T07:52:45.693Z,41.37
2023-05-10T07:53:41.263Z,41.79
2023-05-10T07:54:36.824Z,41.17
2023-05-10T07:55:32.373Z,41.89
2023-05-10T07:56:28.013Z,41.29
2023-05-10T07:57:23.556Z,41.99
2023-05-10T07:58:26.239Z,41.69
2023-05-10T07:59:12.654Z,41.29
2023-05-10T08:00:06.456Z,41.49
2023-05-10T08:01:01.999Z,41.39
2023-05-10T08:01:57.586Z,41.59
2023-05-10T08:02:53.122Z,41.29
2023-05-10T08:03:48.756Z,41.39
2023-05-10T08:04:44.249Z,41.99
2023-05-10T08:05:39.716Z,41.77
2023-05-10T08:06:35.269Z,42.07
2023-05-10T08:07:30.833Z,42.27
2023-05-10T08:08:26.349Z,42.38
2023-05-10T08:09:11.026Z,42.07
2023-05-10T08:10:06.563Z,42.27
2023-05-10T08:11:02.147Z,41.67
2023-05-10T08:11:57.669Z,41.77
2023-05-10T08:12:53.215Z,42.18
2023-05-10T08:13:48.757Z,42.38
2023-05-10T08:14:44.280Z,42.27
2023-05-10T08:15:39.911Z,42.27
2023-05-10T08:16:35.440Z,42.38
2023-05-10T08:17:30.945Z,41.77
2023-05-10T08:18:26.515Z,41.85
2023-05-10T08:19:22.013Z,42.07
2023-05-10T08:20:17.584Z,41.77
2023-05-10T08:21:13.094Z,41.77
2023-05-10T08:22:08.639Z,41.06
2023-05-10T08:23:04.196Z,42.27
2023-05-10T08:23:59.713Z,42.27
2023-05-10T08:24:55.254Z,41.97
2023-05-10T08:25:50.806Z,41.87
2023-05-10T08:26:46.325Z,42.07
2023-05-10T08:27:41.902Z,42.35
2023-05-10T08:28:37.412Z,42.25
2023-05-10T08:29:22.072Z,42.74
2023-05-10T08:30:17.630Z,42.86
2023-05-10T08:31:13.231Z,42.24
2023-05-10T08:32:08.728Z,42.33
2023-05-10T08:33:04.370Z,42.94
2023-05-10T08:33:59.810Z,42.03
2023-05-10T08:34:55.351Z,41.93
2023-05-10T08:35:40.092Z,42.13
2023-05-10T08:36:35.638Z,41.82
2023-05-10T08:37:31.190Z,42.11
2023-05-10T08:38:26.807Z,41.01
2023-05-10T08:39:29.879Z,41.61
2023-05-10T08:40:17.865Z,41.41
2023-05-10T08:41:13.419Z,41.89
2023-05-10T08:42:08.965Z,41.82
2023-05-10T08:43:04.513Z,41.61
2023-05-10T08:44:00.069Z,41.31
2023-05-10T08:44:55.609Z,40.91
2023-05-10T08:45:51.189Z,41.99
2023-05-10T08:46:46.771Z,41.49
2023-05-10T08:47:42.279Z,40.89
2023-05-10T08:48:37.818Z,41.59
2023-05-10T08:49:33.388Z,40.28
2023-05-10T08:50:28.928Z,40.59
2023-05-10T08:51:24.461Z,40.89
2023-05-10T08:52:20.034Z,41.09
2023-05-10T08:53:15.560Z,41.77
2023-05-10T08:54:11.131Z,40.97
2023-05-10T08:55:06.721Z,40.47
2023-05-10T08:56:02.259Z,40.65
2023-05-10T08:56:57.795Z,41.45
2023-05-10T08:57:53.324Z,40.15
2023-05-10T08:58:48.903Z,41.03
2023-05-10T08:59:44.441Z,40.03
2023-05-10T09:00:40.018Z,40.05
2023-05-10T09:01:35.534Z,40.53
2023-05-10T09:02:31.114Z,39.71
2023-05-10T09:03:15.780Z,40.31
2023-05-10T09:04:11.404Z,40.71
2023-05-10T09:05:06.898Z,40.19
2023-05-10T09:06:02.408Z,40.11
2023-05-10T09:06:57.955Z,39.99
2023-05-10T09:07:53.506Z,39.29
2023-05-10T09:08:49.060Z,40.39
2023-05-10T09:09:44.652Z,40.07
2023-05-10T09:10:40.147Z,39.37
2023-05-10T09:11:35.691Z,39.77
2023-05-10T09:12:31.228Z,39.67
2023-05-10T09:13:26.774Z,39.75
2023-05-10T09:14:22.315Z,39.65
2023-05-10T09:15:18.127Z,39.55
2023-05-10T09:16:21.075Z,39.73
2023-05-10T09:17:09.023Z,39.63
2023-05-10T09:18:04.506Z,39.72
2023-05-10T09:19:00.145Z,39.51
2023-05-10T09:19:55.594Z,38.61
2023-05-10T09:20:40.279Z,38.01
2023-05-10T09:21:35.811Z,37.79
2023-05-10T09:22:31.378Z,38.71
2023-05-10T09:23:26.896Z,38.20
2023-05-10T09:24:22.473Z,38.07
2023-05-10T09:25:18.388Z,38.68
2023-05-10T09:26:13.540Z,38.28
2023-05-10T09:27:09.079Z,38.28
2023-05-10T09:28:04.656Z,38.38
2023-05-10T09:29:00.208Z,37.18
2023-05-10T09:29:55.753Z,37.68
2023-05-10T09:30:51.306Z,38.18
2023-05-10T09:31:46.829Z,37.96
2023-05-10T09:32:42.387Z,36.86
2023-05-10T09:33:37.928Z,37.66
2023-05-10T09:34:33.518Z,37.34
2023-05-10T09:35:30.013Z,37.06
2023-05-10T09:36:24.576Z,37.34
2023-05-10T09:37:20.129Z,38.24
2023-05-10T09:38:15.676Z,38.04
2023-05-10T09:39:11.367Z,36.43
2023-05-10T09:40:06.915Z,36.02
2023-05-10T09:41:02.476Z,37.02
2023-05-10T09:41:47.115Z,36.32
2023-05-10T09:42:42.672Z,36.82
2023-05-10T09:43:38.256Z,36.61
2023-05-10T09:44:33.829Z,37.40
2023-05-10T09:45:29.374Z,36.80
2023-05-10T09:46:24.927Z,35.89
2023-05-10T09:47:20.430Z,36.27
2023-05-10T09:48:15.965Z,36.18
2023-05-10T09:49:11.524Z,36.07
2023-05-10T09:50:07.064Z,36.85
2023-05-10T09:51:02.628Z,35.66
2023-05-10T09:51:58.165Z,34.76
2023-05-10T09:52:53.702Z,34.16
2023-05-10T09:53:49.248Z,34.46
2023-05-10T09:54:44.795Z,33.97
2023-05-10T09:55:40.357Z,34.06
2023-05-10T09:56:35.914Z,34.15
2023-05-10T09:57:33.849Z,34.84
2023-05-10T09:58:26.984Z,33.53
2023-05-10T09:59:22.515Z,34.13
2023-05-10T10:00:18.065Z,34.73
2023-05-10T10:01:13.633Z,33.83
2023-05-10T10:02:09.149Z,34.22
2023-05-10T10:03:04.879Z,34.50
2023-05-10T10:04:00.248Z,34.20
2023-05-10T10:04:55.824Z,34.20
2023-05-10T10:05:51.321Z,33.20
2023-05-10T10:06:46.873Z,33.90
2023-05-10T10:07:42.410Z,33.30
2023-05-10T10:08:37.964Z,33.69
2023-05-10T10:09:33.513Z,33.39
2023-05-10T10:10:29.089Z,33.87
2023-05-10T10:11:24.670Z,33.45
2023-05-10T10:12:20.259Z,33.55
2023-05-10T10:13:15.755Z,32.46
2023-05-10T10:14:11.290Z,32.26
2023-05-10T10:15:06.854Z,31.98
2023-05-10T10:16:02.520Z,32.66
2023-05-10T10:17:07.234Z,32.08
2023-05-10T10:17:53.543Z,32.78
2023-05-10T10:18:49.074Z,32.67
2023-05-10T10:19:44.620Z,32.17
2023-05-10T10:20:40.190Z,33.36
2023-05-10T10:21:35.717Z,32.64
2023-05-10T10:22:31.297Z,32.64
2023-05-10T10:23:26.846Z,32.03
2023-05-10T10:24:22.383Z,33.22
2023-05-10T10:25:18.237Z,31.85
2023-05-10T10:26:13.488Z,31.74
2023-05-10T10:27:09.044Z,31.74
2023-05-10T10:28:04.700Z,31.84
2023-05-10T10:29:00.186Z,32.31
2023-05-10T10:29:55.736Z,32.31
2023-05-10T10:30:51.277Z,31.82
2023-05-10T10:31:46.941Z,31.62
2023-05-10T10:32:42.377Z,31.71
2023-05-10T10:33:37.939Z,31.21
2023-05-10T10:34:22.614Z,31.62
2023-05-10T10:35:18.427Z,31.72
2023-05-10T10:36:13.725Z,32.20
2023-05-10T10:37:09.261Z,31.21
2023-05-10T10:38:04.806Z,30.71
2023-05-10T10:39:00.444Z,31.60
2023-05-10T10:39:55.953Z,30.52
2023-05-10T10:40:51.498Z,31.41
2023-05-10T10:41:47.038Z,31.69
2023-05-10T10:42:42.575Z,30.50
2023-05-10T10:43:38.172Z,31.59
2023-05-10T10:44:33.703Z,30.60
2023-05-10T10:45:29.246Z,31.60
2023-05-10T10:46:24.816Z,30.21
2023-05-10T10:47:20.441Z,31.39
2023-05-10T10:48:15.908Z,31.29
2023-05-10T10:49:11.492Z,30.21
2023-05-10T10:50:07.036Z,30.60
2023-05-10T10:51:02.576Z,30.50
2023-05-10T10:51:58.127Z,30.50
2023-05-10T10:52:53.682Z,30.70
2023-05-10T10:53:49.265Z,31.28
2023-05-10T10:54:44.777Z,31.57
2023-05-10T10:55:40.339Z,30.29
2023-05-10T10:56:37.173Z,30.19
2023-05-10T10:57:31.443Z,30.58
2023-05-10T10:58:26.996Z,30.79
2023-05-10T10:59:22.576Z,30.29
2023-05-10T11:00:18.108Z,30.29
2023-05-10T11:01:13.683Z,30.29
2023-05-10T11:02:09.224Z,30.49
2023-05-10T11:03:04.790Z,30.67
2023-05-10T11:04:00.350Z,30.18
2023-05-10T11:04:55.848Z,30.18
2023-05-10T11:05:51.401Z,29.48
2023-05-10T11:06:46.955Z,28.89
2023-05-10T11:07:42.496Z,30.57
2023-05-10T11:08:38.416Z,29.48
2023-05-10T11:09:33.599Z,29.19
2023-05-10T11:10:29.247Z,29.19
2023-05-10T11:11:24.795Z,29.88
2023-05-10T11:12:20.347Z,29.09
2023-05-10T11:13:15.906Z,29.38
2023-05-10T11:14:11.465Z,30.27
2023-05-10T11:15:07.030Z,29.37
2023-05-10T11:16:02.567Z,29.68
2023-05-10T11:16:58.188Z,29.07
2023-05-10T11:17:53.724Z,29.47
2023-05-10T11:18:50.268Z,29.86
2023-05-10T11:19:44.777Z,29.95
2023-05-10T11:20:40.332Z,29.07
2023-05-10T11:21:35.894Z,29.17
2023-05-10T11:22:31.455Z,28.79
2023-05-10T11:23:27.002Z,28.20
2023-05-10T11:24:22.551Z,28.69
2023-05-10T11:25:18.102Z,28.89
2023-05-10T11:26:13.650Z,29.19
2023-05-10T11:27:09.208Z,28.99
2023-05-10T11:28:04.748Z,29.09
2023-05-10T11:29:00.301Z,29.17
2023-05-10T11:29:55.859Z,28.97
2023-05-10T11:30:51.470Z,28.39
2023-05-10T11:31:46.957Z,27.90
2023-05-10T11:32:42.595Z,28.59
2023-05-10T11:33:38.045Z,29.09
2023-05-10T11:34:33.616Z,29.19
2023-05-10T11:35:29.161Z,29.38
2023-05-10T11:36:24.710Z,29.47
2023-05-10T11:37:20.251Z,28.38
2023-05-10T11:38:15.825Z,29.09
2023-05-10T11:39:11.366Z,28.88
2023-05-10T11:40:06.908Z,28.89
2023-05-10T11:41:02.446Z,29.17
2023-05-10T11:41:58.030Z,29.27
2023-05-10T11:43:16.317Z,29.66
2023-05-10T11:44:11.923Z,29.66
2023-05-10T11:45:07.483Z,28.18
2023-05-10T11:46:03.098Z,28.78
2023-05-10T11:46:58.596Z,27.80
2023-05-10T11:47:54.201Z,27.50
2023-05-10T11:48:49.704Z,28.20
2023-05-10T11:49:45.262Z,28.00
2023-05-10T11:50:40.822Z,28.09
2023-05-10T11:51:36.370Z,28.39
2023-05-10T11:52:32.649Z,28.09